createdAt,value
2023-05-01T00:00:41.782Z,100828.53
2023-05-01T00:03:10.766Z,100827.34
2023-05-01T00:05:39.744Z,100831.28
2023-05-01T00:08:10.062Z,100830.06
2023-05-01T00:10:38.695Z,100831.25
2023-05-01T00:13:07.648Z,100824.50
2023-05-01T00:15:36.751Z,100827.66
2023-05-01T00:18:05.578Z,100833.03
2023-05-01T00:20:34.437Z,100828.97
2023-05-01T00:23:03.414Z,100833.94
2023-05-01T00:25:33.262Z,100832.13
2023-05-01T00:28:02.221Z,100837.00
2023-05-01T00:30:31.179Z,100840.81
2023-05-01T00:33:01.876Z,100839.13
2023-05-01T00:35:31.812Z,100834.94
2023-05-01T00:38:00.746Z,100836.00
2023-05-01T00:40:29.190Z,100834.31
2023-05-01T00:43:00.324Z,100838.63
2023-05-01T00:45:29.205Z,100832.75
2023-05-01T00:47:58.124Z,100837.28
2023-05-01T00:50:27.383Z,100839.19
2023-05-01T00:52:55.856Z,100840.34
2023-05-01T00:55:25.004Z,100841.66
2023-05-01T00:57:54.397Z,100839.75
2023-05-01T01:00:24.981Z,100842.59
2023-05-01T01:02:54.177Z,100851.25
2023-05-01T01:05:26.608Z,100848.50
2023-05-01T01:08:01.158Z,100838.94
2023-05-01T01:10:37.188Z,100844.63
2023-05-01T01:13:11.416Z,100841.34
2023-05-01T01:15:48.767Z,100848.38
2023-05-01T01:18:20.452Z,100841.91
2023-05-01T01:20:54.289Z,100849.78
2023-05-01T01:23:44.436Z,100848.63
2023-05-01T01:26:15.658Z,100845.47
2023-05-01T01:29:18.902Z,100858.41
2023-05-01T01:31:54.970Z,100853.47
2023-05-01T01:34:27.758Z,100857.78
2023-05-01T01:37:03.142Z,100864.94
2023-05-01T01:39:38.224Z,100856.19
2023-05-01T01:42:10.418Z,100866.22
2023-05-01T01:44:41.654Z,100858.44
2023-05-01T01:47:13.545Z,100864.97
2023-05-01T01:49:47.215Z,100871.25
2023-05-01T01:52:17.207Z,100867.59
2023-05-01T01:54:56.080Z,100874.63
2023-05-01T01:57:25.460Z,100866.84
2023-05-01T01:59:55.966Z,100865.16
2023-05-01T02:02:27.318Z,100863.50
2023-05-01T02:04:59.545Z,100858.22
2023-05-01T02:07:30.256Z,100862.94
2023-05-01T02:09:59.461Z,100864.31
2023-05-01T02:12:28.432Z,100855.16
2023-05-01T02:14:57.587Z,100861.06
2023-05-01T02:17:27.597Z,100858.44
2023-05-01T02:19:58.644Z,100859.03
2023-05-01T02:22:28.280Z,100856.09
2023-05-01T02:24:58.936Z,100856.13
2023-05-01T02:27:32.337Z,100861.59
2023-05-01T02:30:01.245Z,100855.06
2023-05-01T02:32:30.354Z,100856.75
2023-05-01T02:35:01.498Z,100855.69
2023-05-01T02:37:30.914Z,100852.31
2023-05-01T02:40:00.737Z,100857.56
2023-05-01T02:42:30.189Z,100856.75
2023-05-01T02:45:00.056Z,100866.63
2023-05-01T02:47:29.676Z,100859.88
2023-05-01T02:50:00.190Z,100852.63
2023-05-01T02:52:28.625Z,100853.25
2023-05-01T02:55:12.075Z,100856.53
2023-05-01T02:57:41.434Z,100856.75
2023-05-01T03:00:14.111Z,100862.50
2023-05-01T03:02:43.548Z,100862.00
2023-05-01T03:05:13.859Z,100859.03
2023-05-01T03:07:42.608Z,100857.56
2023-05-01T03:10:12.675Z,100856.63
2023-05-01T03:12:41.999Z,100858.63
2023-05-01T03:15:12.089Z,100863.22
2023-05-01T03:17:41.043Z,100860.94
2023-05-01T03:20:10.953Z,100861.53
2023-05-01T03:22:40.930Z,100854.19
2023-05-01T03:25:10.695Z,100856.09
2023-05-01T03:27:40.406Z,100859.16
2023-05-01T03:30:12.155Z,100855.06
2023-05-01T03:32:43.373Z,100853.72
2023-05-01T03:35:20.126Z,100852.56
2023-05-01T03:37:50.300Z,100854.75
2023-05-01T03:40:39.048Z,100850.13
2023-05-01T03:43:26.921Z,100857.91
2023-05-01T03:45:57.688Z,100856.19
2023-05-01T03:48:27.031Z,100852.94
2023-05-01T03:50:56.898Z,100848.50
2023-05-01T03:53:27.197Z,100853.03
2023-05-01T03:55:55.800Z,100857.31
2023-05-01T03:58:24.646Z,100858.97
2023-05-01T04:00:53.581Z,100853.25
2023-05-01T04:03:22.486Z,100858.44
2023-05-01T04:05:54.200Z,100858.03
2023-05-01T04:08:23.152Z,100850.13
2023-05-01T04:10:53.053Z,100857.72
2023-05-01T04:13:21.741Z,100852.81
2023-05-01T04:15:50.628Z,100857.41
2023-05-01T04:18:19.639Z,100849.91
2023-05-01T04:20:48.491Z,100861.19
2023-05-01T04:23:17.529Z,100851.50
2023-05-01T04:25:46.146Z,100855.97
2023-05-01T04:28:20.401Z,100857.88
2023-05-01T04:30:48.968Z,100856.53
2023-05-01T04:33:17.790Z,100857.03
2023-05-01T04:35:46.908Z,100855.72
2023-05-01T04:38:15.668Z,100853.28
2023-05-01T04:40:44.142Z,100858.69
2023-05-01T04:43:13.831Z,100851.59
2023-05-01T04:45:47.670Z,100851.91
2023-05-01T04:48:16.423Z,100853.22
2023-05-01T04:50:45.281Z,100849.00
2023-05-01T04:53:14.572Z,100854.09
2023-05-01T04:55:44.861Z,100844.53
2023-05-01T04:58:16.639Z,100846.06
2023-05-01T05:00:52.503Z,100848.25
2023-05-01T05:03:24.149Z,100846.56
2023-05-01T05:05:58.287Z,100843.91
2023-05-01T05:08:27.220Z,100845.56
2023-05-01T05:10:59.534Z,100842.44
2023-05-01T05:13:32.314Z,100836.25
2023-05-01T05:16:05.939Z,100842.69
2023-05-01T05:18:34.933Z,100844.53
2023-05-01T05:21:06.057Z,100843.47
2023-05-01T05:23:34.995Z,100848.78
2023-05-01T05:26:04.084Z,100842.78
2023-05-01T05:28:33.069Z,100843.72
2023-05-01T05:31:02.135Z,100846.13
2023-05-01T05:33:32.869Z,100842.34
2023-05-01T05:36:02.260Z,100845.00
2023-05-01T05:38:36.963Z,100840.16
2023-05-01T05:41:08.400Z,100847.09
2023-05-01T05:43:37.477Z,100841.41
2023-05-01T05:46:07.053Z,100844.44
2023-05-01T05:48:39.397Z,100846.69
2023-05-01T05:51:08.194Z,100846.25
2023-05-01T05:53:37.022Z,100850.19
2023-05-01T05:56:06.440Z,100852.47
2023-05-01T05:58:34.993Z,100844.88
2023-05-01T06:01:03.818Z,100854.47
2023-05-01T06:03:32.921Z,100844.22
2023-05-01T06:06:05.420Z,100852.06
2023-05-01T06:08:35.555Z,100856.53
2023-05-01T06:11:06.352Z,100850.69
2023-05-01T06:13:34.798Z,100844.88
2023-05-01T06:16:03.911Z,100849.53
2023-05-01T06:18:32.986Z,100848.69
2023-05-01T06:21:04.907Z,100851.59
2023-05-01T06:24:04.368Z,100860.00
2023-05-01T06:27:03.952Z,100860.50
2023-05-01T06:29:34.613Z,100854.03
2023-05-01T06:32:04.331Z,100847.28
2023-05-01T06:34:33.585Z,100853.13
2023-05-01T06:37:05.323Z,100851.63
2023-05-01T06:39:35.201Z,100856.75
2023-05-01T06:42:04.813Z,100860.00
2023-05-01T06:44:41.618Z,100852.84
2023-05-01T06:47:10.701Z,100853.06
2023-05-01T06:49:41.242Z,100855.56
2023-05-01T06:52:11.609Z,100850.19
2023-05-01T06:54:41.902Z,100849.84
2023-05-01T06:57:11.017Z,100841.53
2023-05-01T06:59:40.285Z,100843.22
2023-05-01T07:02:09.265Z,100840.19
2023-05-01T07:04:38.031Z,100841.16
2023-05-01T07:07:07.004Z,100846.97
2023-05-01T07:09:37.521Z,100831.84
2023-05-01T07:12:07.132Z,100836.34
2023-05-01T07:14:36.426Z,100837.00
2023-05-01T07:17:05.989Z,100835.94
2023-05-01T07:19:35.338Z,100839.31
2023-05-01T07:22:04.841Z,100836.22
2023-05-01T07:24:33.681Z,100830.69
2023-05-01T07:27:04.106Z,100836.66
2023-05-01T07:29:33.325Z,100831.84
2023-05-01T07:32:02.210Z,100833.72
2023-05-01T07:34:31.458Z,100830.13
2023-05-01T07:37:00.311Z,100833.03
2023-05-01T07:39:29.496Z,100843.28
2023-05-01T07:41:58.857Z,100843.22
2023-05-01T07:44:29.324Z,100836.31
2023-05-01T07:47:04.198Z,100836.28
2023-05-01T07:49:37.224Z,100833.56
2023-05-01T07:52:07.470Z,100836.81
2023-05-01T07:54:36.198Z,100840.06
2023-05-01T07:57:07.286Z,100837.47
2023-05-01T07:59:37.650Z,100839.47
2023-05-01T08:02:06.356Z,100830.97
2023-05-01T08:04:34.872Z,100830.78
2023-05-01T08:07:03.763Z,100835.81
2023-05-01T08:09:32.667Z,100830.69
2023-05-01T08:12:04.113Z,100832.94
2023-05-01T08:14:33.258Z,100842.19
2023-05-01T08:17:04.092Z,100832.19
2023-05-01T08:19:32.724Z,100836.16
2023-05-01T08:22:01.640Z,100838.38
2023-05-01T08:24:31.285Z,100825.63
2023-05-01T08:27:00.223Z,100832.94
2023-05-01T08:29:29.229Z,100835.97
2023-05-01T08:31:59.463Z,100841.91
2023-05-01T08:34:29.574Z,100832.41
2023-05-01T08:36:58.523Z,100827.66
2023-05-01T08:39:27.451Z,100830.59
2023-05-01T08:41:58.467Z,100826.16
2023-05-01T08:44:27.852Z,100817.97
2023-05-01T08:47:05.192Z,100820.56
2023-05-01T08:49:36.119Z,100825.19
2023-05-01T08:52:06.431Z,100831.84
2023-05-01T08:54:36.670Z,100830.97
2023-05-01T08:57:06.111Z,100827.16
2023-05-01T08:59:36.134Z,100830.50
2023-05-01T09:02:08.705Z,100823.50
2023-05-01T09:04:40.811Z,100810.75
2023-05-01T09:07:10.181Z,100810.75
2023-05-01T09:09:39.095Z,100817.91
2023-05-01T09:12:13.330Z,100819.94
2023-05-01T09:14:42.381Z,100812.00
2023-05-01T09:17:11.591Z,100812.38
2023-05-01T09:19:42.001Z,100804.44
2023-05-01T09:22:12.294Z,100805.34
2023-05-01T09:24:41.211Z,100802.47
2023-05-01T09:27:10.238Z,100798.53
2023-05-01T09:29:40.401Z,100793.75
2023-05-01T09:32:16.564Z,100787.50
2023-05-01T09:34:46.627Z,100792.88
2023-05-01T09:37:27.337Z,100792.66
2023-05-01T09:40:07.012Z,100783.69
2023-05-01T09:42:37.459Z,100782.16
2023-05-01T09:45:08.025Z,100772.09
2023-05-01T09:47:37.106Z,100778.41
2023-05-01T09:50:08.792Z,100765.66
2023-05-01T09:52:37.627Z,100767.75
2023-05-01T09:55:16.579Z,100776.72
2023-05-01T09:57:46.899Z,100770.66
2023-05-01T10:00:17.019Z,100763.16
2023-05-01T10:02:47.117Z,100753.09
2023-05-01T10:05:17.391Z,100760.28
2023-05-01T10:08:10.376Z,100760.63
2023-05-01T10:10:39.504Z,100755.03
2023-05-01T10:13:15.639Z,100749.56
2023-05-01T10:15:46.854Z,100756.13
2023-05-01T10:18:16.094Z,100756.56
2023-05-01T10:20:46.397Z,100759.09
2023-05-01T10:23:15.694Z,100742.13
2023-05-01T10:25:44.305Z,100731.97
2023-05-01T10:28:14.082Z,100737.31
2023-05-01T10:30:43.175Z,100731.91
2023-05-01T10:33:14.723Z,100724.50
2023-05-01T10:35:48.498Z,100721.00
2023-05-01T10:38:23.544Z,100717.63
2023-05-01T10:40:52.488Z,100722.97
2023-05-01T10:43:26.106Z,100720.00
2023-05-01T10:45:55.805Z,100727.06
2023-05-01T10:48:54.259Z,100718.47
2023-05-01T10:51:27.803Z,100712.22
2023-05-01T10:54:28.663Z,100716.63
2023-05-01T10:57:01.324Z,100703.88
2023-05-01T11:00:08.648Z,100700.00
2023-05-01T11:02:37.785Z,100707.66
2023-05-01T11:05:07.332Z,100705.31
2023-05-01T11:07:37.467Z,100692.88
2023-05-01T11:10:27.188Z,100680.91
2023-05-01T11:12:57.033Z,100688.81
2023-05-01T11:15:30.524Z,100685.53
2023-05-01T11:18:00.454Z,100680.31
2023-05-01T11:20:49.651Z,100674.81
2023-05-01T11:23:23.886Z,100677.63
2023-05-01T11:26:03.839Z,100683.75
2023-05-01T11:28:33.264Z,100677.16
2023-05-01T11:31:03.465Z,100675.06
2023-05-01T11:33:32.556Z,100660.34
2023-05-01T11:36:02.777Z,100663.47
2023-05-01T11:38:33.309Z,100655.44
2023-05-01T11:41:04.252Z,100656.41
2023-05-01T11:43:33.414Z,100653.63
2023-05-01T11:46:05.248Z,100633.53
2023-05-01T11:48:34.636Z,100629.38
2023-05-01T11:51:14.222Z,100637.53
2023-05-01T11:53:44.403Z,100654.06
2023-05-01T11:56:27.173Z,100659.25
2023-05-01T11:58:57.777Z,100636.91
2023-05-01T12:01:35.979Z,100629.81
2023-05-01T12:04:10.246Z,100633.06
2023-05-01T12:06:44.233Z,100632.97
2023-05-01T12:09:17.996Z,100627.06
2023-05-01T12:11:47.430Z,100633.22
2023-05-01T12:14:17.066Z,100631.38
2023-05-01T12:16:46.564Z,100630.25
2023-05-01T12:19:15.891Z,100626.28
2023-05-01T12:21:44.884Z,100628.56
2023-05-01T12:24:17.598Z,100624.47
2023-05-01T12:26:47.758Z,100614.28
2023-05-01T12:29:17.105Z,100604.41
2023-05-01T12:31:48.488Z,100593.97
2023-05-01T12:34:17.690Z,100601.56
2023-05-01T12:36:55.198Z,100601.38
2023-05-01T12:39:26.246Z,100598.66
2023-05-01T12:41:56.494Z,100595.59
2023-05-01T12:44:26.746Z,100583.50
2023-05-01T12:46:56.791Z,100593.59
2023-05-01T12:49:26.328Z,100583.72
2023-05-01T12:51:56.676Z,100587.28
2023-05-01T12:54:29.436Z,100591.53
2023-05-01T12:57:08.012Z,100575.69
2023-05-01T12:59:37.893Z,100585.66
2023-05-01T13:02:08.586Z,100586.84
2023-05-01T13:04:37.678Z,100563.34
2023-05-01T13:07:12.883Z,100557.69
2023-05-01T13:09:52.924Z,100555.69
2023-05-01T13:12:22.330Z,100551.84
2023-05-01T13:14:51.905Z,100554.25
2023-05-01T13:17:25.825Z,100548.66
2023-05-01T13:19:56.131Z,100545.47
2023-05-01T13:22:32.571Z,100542.94
2023-05-01T13:25:04.338Z,100551.03
2023-05-01T13:27:33.797Z,100549.63
2023-05-01T13:30:02.905Z,100547.66
2023-05-01T13:33:12.409Z,100537.31
2023-05-01T13:36:26.793Z,100539.94
2023-05-01T13:39:36.556Z,100535.41
2023-05-01T13:42:48.306Z,100549.44
2023-05-01T13:46:00.492Z,100539.13
2023-05-01T13:49:09.951Z,100524.25
2023-05-01T13:52:20.741Z,100533.66
2023-05-01T13:55:29.936Z,100525.25
2023-05-01T13:58:40.869Z,100522.72
2023-05-01T14:01:50.074Z,100514.78
2023-05-01T14:05:00.939Z,100506.69
2023-05-01T14:08:10.934Z,100506.19
2023-05-01T14:11:20.779Z,100502.34
2023-05-01T14:14:31.988Z,100499.94
2023-05-01T14:17:41.302Z,100502.31
2023-05-01T14:20:50.496Z,100492.94
2023-05-01T14:24:00.481Z,100482.28
2023-05-01T14:27:10.946Z,100495.22
2023-05-01T14:30:27.824Z,100488.56
2023-05-01T14:33:43.390Z,100486.47
2023-05-01T14:36:52.867Z,100491.59
2023-05-01T14:40:02.506Z,100493.94
2023-05-01T14:43:12.284Z,100483.41
2023-05-01T14:46:30.024Z,100485.47
2023-05-01T14:49:39.293Z,100477.97
2023-05-01T14:52:48.637Z,100480.63
2023-05-01T14:55:57.799Z,100478.59
2023-05-01T14:59:06.930Z,100462.41
2023-05-01T15:02:18.910Z,100458.41
2023-05-01T15:05:29.151Z,100450.06
2023-05-01T15:08:38.910Z,100461.56
2023-05-01T15:11:48.159Z,100461.31
2023-05-01T15:14:57.518Z,100451.72
2023-05-01T15:18:08.566Z,100443.09
2023-05-01T15:21:18.312Z,100443.91
2023-05-01T15:24:27.456Z,100434.47
2023-05-01T15:27:36.600Z,100423.94
2023-05-01T15:30:47.015Z,100430.50
2023-05-01T15:33:57.622Z,100411.44
2023-05-01T15:37:06.799Z,100416.84
2023-05-01T15:40:16.135Z,100420.50
2023-05-01T15:43:25.302Z,100416.50
2023-05-01T15:46:34.583Z,100432.59
2023-05-01T15:49:45.240Z,100419.56
2023-05-01T15:52:54.517Z,100428.41
2023-05-01T15:56:03.737Z,100423.25
2023-05-01T15:59:14.400Z,100409.03
2023-05-01T16:02:23.891Z,100414.66
2023-05-01T16:04:54.485Z,100419.38
2023-05-01T16:07:23.428Z,100406.91
2023-05-01T16:09:52.335Z,100407.59
2023-05-01T16:12:21.256Z,100394.94
2023-05-01T16:14:50.180Z,100404.84
2023-05-01T16:17:19.653Z,100416.09
2023-05-01T16:19:48.269Z,100404.69
2023-05-01T16:22:18.799Z,100399.53
2023-05-01T16:24:47.719Z,100394.63
2023-05-01T16:27:19.669Z,100399.53
2023-05-01T16:29:48.689Z,100392.72
2023-05-01T16:32:18.190Z,100391.41
2023-05-01T16:34:46.774Z,100392.44
2023-05-01T16:37:16.361Z,100389.06
2023-05-01T16:39:48.068Z,100383.25
2023-05-01T16:42:17.047Z,100378.34
2023-05-01T16:44:45.898Z,100380.25
2023-05-01T16:47:14.994Z,100388.06
2023-05-01T16:49:43.609Z,100380.38
2023-05-01T16:52:14.329Z,100389.25
2023-05-01T16:54:43.324Z,100387.19
2023-05-01T16:57:14.667Z,100375.84
2023-05-01T16:59:43.707Z,100384.28
2023-05-01T17:02:13.339Z,100381.81
2023-05-01T17:04:42.130Z,100384.91
2023-05-01T17:07:11.063Z,100382.00
2023-05-01T17:09:40.274Z,100381.59
2023-05-01T17:12:09.295Z,100383.53
2023-05-01T17:14:39.873Z,100378.00
2023-05-01T17:17:09.529Z,100377.56
2023-05-01T17:19:39.153Z,100381.72
2023-05-01T17:22:08.405Z,100371.72
2023-05-01T17:24:37.710Z,100376.66
2023-05-01T17:27:06.860Z,100372.84
2023-05-01T17:29:35.770Z,100367.13
2023-05-01T17:32:07.038Z,100367.38
2023-05-01T17:34:35.599Z,100366.06
2023-05-01T17:37:04.411Z,100369.63
2023-05-01T17:39:33.336Z,100376.06
2023-05-01T17:42:02.473Z,100377.56
2023-05-01T17:44:31.658Z,100371.25
2023-05-01T17:47:00.666Z,100380.88
2023-05-01T17:49:30.891Z,100378.75
2023-05-01T17:51:59.873Z,100376.97
2023-05-01T17:54:28.731Z,100378.16
2023-05-01T17:56:58.279Z,100378.03
2023-05-01T17:59:30.550Z,100378.41
2023-05-01T18:01:59.625Z,100382.97
2023-05-01T18:04:29.344Z,100379.94
2023-05-01T18:07:00.745Z,100386.84
2023-05-01T18:09:29.893Z,100386.66
2023-05-01T18:11:58.796Z,100382.22
2023-05-01T18:14:28.044Z,100382.22
2023-05-01T18:16:56.756Z,100378.72
2023-05-01T18:19:26.185Z,100381.69
2023-05-01T18:21:55.058Z,100381.88
2023-05-01T18:24:25.550Z,100383.34
2023-05-01T18:26:54.295Z,100380.88
2023-05-01T18:29:23.438Z,100380.22
2023-05-01T18:31:52.219Z,100381.56
2023-05-01T18:34:21.211Z,100379.25
2023-05-01T18:36:52.330Z,100387.00
2023-05-01T18:39:22.704Z,100382.31
2023-05-01T18:41:52.998Z,100381.66
2023-05-01T18:44:21.920Z,100374.47
2023-05-01T18:46:50.460Z,100378.34
2023-05-01T18:49:23.538Z,100379.69
2023-05-01T18:51:52.976Z,100377.41
2023-05-01T18:54:23.172Z,100382.31
2023-05-01T18:56:54.230Z,100382.97
2023-05-01T18:59:23.961Z,100380.88
2023-05-01T19:01:54.000Z,100376.25
2023-05-01T19:04:22.982Z,100379.06
2023-05-01T19:06:52.091Z,100371.63
2023-05-01T19:09:21.007Z,100360.31
2023-05-01T19:11:50.394Z,100359.25
2023-05-01T19:14:21.561Z,100354.94
2023-05-01T19:16:51.029Z,100360.81
2023-05-01T19:19:20.244Z,100356.50
2023-05-01T19:21:50.661Z,100353.66
2023-05-01T19:24:20.377Z,100353.16
2023-05-01T19:26:49.268Z,100347.38
2023-05-01T19:29:18.159Z,100347.19
2023-05-01T19:31:48.751Z,100354.50
2023-05-01T19:34:17.773Z,100349.06
2023-05-01T19:36:46.680Z,100353.44
2023-05-01T19:39:16.407Z,100353.09
2023-05-01T19:41:45.354Z,100350.44
2023-05-01T19:44:14.240Z,100346.63
2023-05-01T19:46:43.003Z,100344.28
2023-05-01T19:49:14.122Z,100344.47
2023-05-01T19:51:43.086Z,100353.78
2023-05-01T19:54:11.920Z,100350.78
2023-05-01T19:56:41.749Z,100350.13
2023-05-01T19:59:10.623Z,100345.31
2023-05-01T20:01:39.203Z,100347.47
2023-05-01T20:04:08.249Z,100339.81
2023-05-01T20:06:38.634Z,100340.63
2023-05-01T20:09:08.587Z,100339.31
2023-05-01T20:11:37.506Z,100347.25
2023-05-01T20:14:06.848Z,100344.63
2023-05-01T20:16:35.939Z,100349.78
2023-05-01T20:19:06.486Z,100343.75
2023-05-01T20:21:36.597Z,100333.44
2023-05-01T20:24:07.281Z,100339.88
2023-05-01T20:26:36.273Z,100333.44
2023-05-01T20:29:05.269Z,100330.59
2023-05-01T20:31:34.769Z,100333.28
2023-05-01T20:34:03.967Z,100337.84
2023-05-01T20:36:41.205Z,100337.28
2023-05-01T20:39:12.336Z,100336.41
2023-05-01T20:41:40.985Z,100328.03
2023-05-01T20:44:10.037Z,100338.00
2023-05-01T20:46:38.557Z,100325.78
2023-05-01T20:49:10.206Z,100338.16
2023-05-01T20:51:39.325Z,100338.84
2023-05-01T20:54:08.354Z,100330.81
2023-05-01T20:56:39.602Z,100331.72
2023-05-01T20:59:08.889Z,100343.84
2023-05-01T21:01:37.723Z,100335.00
2023-05-01T21:04:06.900Z,100341.84
2023-05-01T21:06:35.853Z,100340.72
2023-05-01T21:09:06.442Z,100348.09
2023-05-01T21:11:35.055Z,100345.59
2023-05-01T21:14:05.352Z,100343.78
2023-05-01T21:16:34.971Z,100351.69
2023-05-01T21:19:04.265Z,100349.97
2023-05-01T21:21:36.745Z,100358.94
2023-05-01T21:24:06.422Z,100366.88
2023-05-01T21:26:35.538Z,100351.56
2023-05-01T21:29:05.912Z,100351.75
2023-05-01T21:31:36.065Z,100359.91
2023-05-01T21:34:05.147Z,100353.16
2023-05-01T21:36:34.175Z,100353.88
2023-05-01T21:39:03.140Z,100357.03
2023-05-01T21:41:32.012Z,100353.22
2023-05-01T21:44:01.662Z,100344.50
2023-05-01T21:46:31.673Z,100340.34
2023-05-01T21:49:00.329Z,100345.00
2023-05-01T21:51:29.748Z,100339.06
2023-05-01T21:53:58.649Z,100342.47
2023-05-01T21:56:27.697Z,100338.63
2023-05-01T21:59:01.206Z,100330.72
2023-05-01T22:01:31.799Z,100327.38
2023-05-01T22:04:01.162Z,100328.69
2023-05-01T22:06:30.171Z,100331.22
2023-05-01T22:08:59.306Z,100327.81
2023-05-01T22:11:28.135Z,100326.31
2023-05-01T22:13:56.906Z,100323.78
2023-05-01T22:16:25.813Z,100325.75
2023-05-01T22:18:56.501Z,100324.72
2023-05-01T22:21:25.415Z,100321.31
2023-05-01T22:23:55.528Z,100322.13
2023-05-01T22:26:24.609Z,100321.16
2023-05-01T22:28:53.112Z,100322.50
2023-05-01T22:31:22.042Z,100321.94
2023-05-01T22:33:53.212Z,100311.59
2023-05-01T22:36:23.685Z,100318.34
2023-05-01T22:38:52.726Z,100317.69
2023-05-01T22:41:21.688Z,100314.34
2023-05-01T22:43:50.153Z,100316.59
2023-05-01T22:46:19.077Z,100312.31
2023-05-01T22:48:48.203Z,100316.69
2023-05-01T22:51:17.095Z,100306.56
2023-05-01T22:53:47.453Z,100299.91
2023-05-01T22:56:16.494Z,100301.41
2023-05-01T22:58:44.898Z,100306.44
2023-05-01T23:01:13.985Z,100301.88
2023-05-01T23:03:42.936Z,100301.09
2023-05-01T23:06:11.866Z,100300.34
2023-05-01T23:08:40.809Z,100298.38
2023-05-01T23:11:13.403Z,100297.38
2023-05-01T23:13:43.132Z,100294.19
2023-05-01T23:16:15.523Z,100295.03
2023-05-01T23:18:44.931Z,100286.38
2023-05-01T23:21:14.822Z,100291.38
2023-05-01T23:23:44.326Z,100288.47
2023-05-01T23:26:24.764Z,100283.13
2023-05-01T23:28:53.771Z,100282.16
2023-05-01T23:31:25.897Z,100283.59
2023-05-01T23:33:56.021Z,100279.44
2023-05-01T23:36:24.846Z,100277.69
2023-05-01T23:38:53.697Z,100267.34
2023-05-01T23:41:25.159Z,100271.31
2023-05-01T23:43:53.682Z,100276.06
2023-05-01T23:46:22.505Z,100277.00
2023-05-01T23:48:51.446Z,100284.53
2023-05-01T23:51:20.275Z,100265.44
2023-05-01T23:53:49.228Z,100271.13
2023-05-01T23:56:18.356Z,100272.47
2023-05-01T23:58:48.320Z,100267.06
